Terminal Aerodrome Forecast
Issued by NWS

Home | Current Version | Previous Version | Graphics & Text | Print | Product List | Glossary On
Versions: 1 2 3 4 5 6 7 8 9 10 11 12 13 14 15 16 17 18 19 20 21 22 23 24 25 26 27
000
FTUS43 KUNR 250413 AAC
TAFGCC
TAF AMD
KGCC 250413Z 2504/2524 36009KT P6SM OVC005
      TEMPO 2504/2508 4SM -SHRA BR OVC005
     FM251600 34009KT P6SM OVC015=

USA.gov is the U.S. government's official web portal to all federal, state and local government web resources and services.